Airfield :
LOGIN :

Register | Disclaimer

   EN    FR    IT 

 










Legend :    VFR   Marginal VFR   IFR   Intensive IFR   Very Intensive IFR
Visi :
Ceiling :
>= 8 km
>= 3000ft
5 to 8 km
1000 to 3000 ft
1500m to 5 km
500 to 1000 ft
800 to 1500m
200 to 500 ft
< 800m
< 200 ft
Symbols :   Thunderstorms  Fog  Heavy snow  Heavy precipitations  Wind > 20 kt
SIGMETs :     Misc.  Thunderstorms  Icing  Turbulence  Mountain Waves  Volcanic Ashes







- Airport Elevation : 681 ft
- IATA code : LBA
- Download approach charts


EGNM - Leeds Bradford

CURRENT METAR :
  • 192150Z 29009KT 9999 FEW010 10/08 Q1012

EXPIRED METARs :
  • 192120Z 28008KT CAVOK 10/08 Q1012
  • 192050Z 27008KT CAVOK 10/08 Q1012
  • 192020Z 29007KT CAVOK 11/07 Q1012
  • 191950Z 29008KT CAVOK 12/07 Q1011
  • 191920Z 29006KT CAVOK 12/08 Q1011

TAF TAF EGNM
Valid from the 19 at 18:00 until the 20 at 18:00 UTC


191659Z 1918/2018 27008KT 9999 FEW040
PROB40
TEMPO 1923/2008 8000 BKN010
PROB40
TEMPO 2010/2018 6000 SHRA
ATIS : +44 113 250 9696 (x2489)
No reported NOTAMs for that airfield.



MET'MAP, your aeronautical weather chart ! - Copyright ORBIFLY December 2007 - Disclaimer

ORBIFLY MET'MAP TEAM :

Programming & Development : Alexandra Zaïnal
Concept & Development : Baudouin d'Aumeries
Co-Development & Prog : Marc-Olivier Méhu
Technical & hardware support : Manuel Goepfert

Contact : metmap@orbifly.com




SOURCES & CREDITS :

   NOAA